Time;durP1;ratioP1;P1;durP2;ratioP2;P2;SDS_P1;SDS_P2;PMS_P1;PMS_P2;Temp;Humidity;BMP_temperature;BMP_pressure;BME280_temperature;BME280_humidity;BME280_pressure;Samples;Min_cycle;Max_cycle;Signal;HPM_P1;HPM_P2
2022/08/04 00:00:44;;;;;;;;;;;;;;;26.86;56.92;101331.50;4987261;28;19926;-87
2022/08/04 00:03:15;;;;;;;;;;;;;;;26.86;57.06;101331.50;4988962;28;19922;-86
2022/08/04 00:05:47;;;;;;;;;;;;;;;26.83;57.16;101328.84;4977405;28;19918;-86
2022/08/04 00:08:15;;;;;;;;;;;;;;;26.83;57.04;101316.34;4986250;28;19925;-87
2022/08/04 00:10:41;;;;;;;;;;;;;;;26.84;56.76;101317.22;5002364;28;20387;-86
2022/08/04 00:13:07;;;;;;;;;;;;;;;26.83;57.00;101319.00;4977935;28;20455;-87
2022/08/04 00:15:32;;;;;;;;;;;;;;;26.82;57.12;101327.97;4973884;28;19917;-87
2022/08/04 00:18:06;;;;;;;;;;;;;;;26.80;56.74;101325.28;4971921;28;19948;-86
2022/08/04 00:20:33;;;;;;;;;;;;;;;26.83;56.76;101326.16;4991059;28;19925;-87
2022/08/04 00:22:59;;;;;;;;;;;;;;;26.80;56.87;101321.72;4973973;28;20008;-86
2022/08/04 00:25:24;;;;;;;;;;;;;;;26.81;57.05;101316.34;4989267;28;20061;-87
2022/08/04 00:27:50;;;;;;;;;;;;;;;26.80;56.67;101327.97;4988114;28;19925;-86
2022/08/04 00:30:15;;;;;;;;;;;;;;;26.82;56.89;101319.94;4988733;28;19944;-85
2022/08/04 00:32:43;;;;;;;;;;;;;;;26.80;56.99;101327.09;4992263;28;19918;-85
2022/08/04 00:35:09;;;;;;;;;;;;;;;26.80;56.76;101324.41;4989504;28;19952;-86
2022/08/04 00:37:38;;;;;;;;;;;;;;;26.80;56.80;101316.38;4968334;28;19965;-85
2022/08/04 00:40:36;;;;;;;;;;;;;;;26.80;56.96;101325.28;4986251;28;20401;-87
2022/08/04 00:43:23;;;;;;;;;;;;;;;26.77;57.00;101319.91;4943035;28;21175;-87
2022/08/04 00:45:56;;;;;;;;;;;;;;;26.77;56.57;101321.72;4989673;28;19913;-86
2022/08/04 00:48:40;;;;;;;;;;;;;;;26.77;56.84;101325.28;4989039;28;19925;-87
2022/08/04 00:51:12;;;;;;;;;;;;;;;26.76;56.66;101320.84;4990100;28;19913;-87
2022/08/04 00:53:56;;;;;;;;;;;;;;;26.76;56.78;101325.31;4990106;28;19980;-86
2022/08/04 00:56:31;;;;;;;;;;;;;;;26.64;56.56;101301.25;4974637;28;19925;-85
2022/08/04 00:59:05;;;;;;;;;;;;;;;26.73;56.50;101322.63;4985191;28;19918;-87
2022/08/04 01:01:31;;;;;;;;;;;;;;;26.74;56.48;101319.94;4952633;28;19918;-85
2022/08/04 01:04:03;;;;;;;;;;;;;;;26.74;56.62;101319.94;4977758;28;19968;-86
2022/08/04 01:06:32;;;;;;;;;;;;;;;26.72;56.73;101319.06;4974913;28;20008;-87
2022/08/04 01:09:03;;;;;;;;;;;;;;;26.76;56.47;101317.28;4971054;28;19914;-86
2022/08/04 01:11:40;;;;;;;;;;;;;;;26.73;56.70;101314.59;4974547;28;19953;-87
2022/08/04 01:14:05;;;;;;;;;;;;;;;26.73;56.47;101318.19;4977875;28;19917;-87
2022/08/04 01:16:31;;;;;;;;;;;;;;;26.74;56.40;101313.72;4981124;28;20442;-87
2022/08/04 01:18:59;;;;;;;;;;;;;;;26.73;56.60;101323.53;4972303;28;20387;-86
2022/08/04 01:21:28;;;;;;;;;;;;;;;26.70;56.73;101315.50;4965591;28;20315;-87
2022/08/04 01:23:59;;;;;;;;;;;;;;;26.68;56.68;101319.97;4987175;28;19965;-87
2022/08/04 01:26:31;;;;;;;;;;;;;;;26.69;56.68;101318.16;4973130;28;20363;-86
2022/08/04 01:29:04;;;;;;;;;;;;;;;26.70;56.42;101322.66;4990818;28;20403;-87
2022/08/04 01:31:32;;;;;;;;;;;;;;;26.69;56.57;101311.06;4973755;28;19929;-86
2022/08/04 01:33:58;;;;;;;;;;;;;;;26.68;56.56;101316.41;4973872;28;19920;-85
2022/08/04 01:36:23;;;;;;;;;;;;;;;26.68;56.49;101317.28;4990058;28;20020;-85
2022/08/04 01:38:49;;;;;;;;;;;;;;;26.69;56.63;101319.09;4974281;28;19964;-86
2022/08/04 01:41:14;;;;;;;;;;;;;;;26.67;56.63;101318.19;4976570;28;19918;-86
2022/08/04 01:43:41;;;;;;;;;;;;;;;26.66;56.52;101324.44;4977406;28;19963;-85
2022/08/04 01:46:06;;;;;;;;;;;;;;;26.65;56.63;101320.00;4960472;28;19918;-87
2022/08/04 01:48:32;;;;;;;;;;;;;;;26.65;56.59;101320.00;4976743;28;19914;-87
2022/08/04 01:50:58;;;;;;;;;;;;;;;26.65;56.55;101320.00;4976293;28;19918;-88
2022/08/04 01:53:31;;;;;;;;;;;;;;;26.65;56.30;101317.31;4958254;28;19966;-87
2022/08/04 01:55:56;;;;;;;;;;;;;;;26.65;56.27;101320.00;4974408;28;19926;-86
2022/08/04 01:58:24;;;;;;;;;;;;;;;26.65;56.54;101321.75;4969479;28;20226;-86
2022/08/04 02:01:01;;;;;;;;;;;;;;;26.63;56.32;101320.88;4975360;28;20368;-86
2022/08/04 02:03:29;;;;;;;;;;;;;;;26.64;56.25;101325.34;4975685;28;19921;-86
2022/08/04 02:05:58;;;;;;;;;;;;;;;26.60;56.57;101319.97;4975070;28;20391;-86
2022/08/04 02:08:33;;;;;;;;;;;;;;;26.62;56.25;101327.16;4974026;28;19921;-86
2022/08/04 02:10:59;;;;;;;;;;;;;;;26.59;56.37;101323.56;4976602;28;19918;-86
2022/08/04 02:14:00;;;;;;;;;;;;;;;26.57;56.63;101329.84;4978629;28;20307;-86
2022/08/04 02:16:29;;;;;;;;;;;;;;;26.57;56.50;101321.81;4933590;29;19923;-87
2022/08/04 02:18:55;;;;;;;;;;;;;;;26.58;56.31;101323.56;4964753;28;19924;-86
2022/08/04 02:21:20;;;;;;;;;;;;;;;26.59;56.23;101323.56;4992135;28;20294;-87
2022/08/04 02:23:48;;;;;;;;;;;;;;;26.59;56.31;101325.38;4974190;28;19918;-88
2022/08/04 02:26:17;;;;;;;;;;;;;;;26.56;56.29;101319.97;4972872;28;20627;-88
2022/08/04 02:28:47;;;;;;;;;;;;;;;26.57;56.25;101322.69;4954516;28;19957;-88
2022/08/04 02:31:18;;;;;;;;;;;;;;;26.56;56.59;101319.97;4968750;28;19996;-88
2022/08/04 02:33:45;;;;;;;;;;;;;;;26.52;56.32;101318.19;4993410;28;19917;-88
2022/08/04 02:39:01;;;;;;;;;;;;;;;26.52;56.49;101320.88;4977721;28;19969;-87
2022/08/04 02:41:27;;;;;;;;;;;;;;;26.53;56.06;101322.69;4960487;28;19949;-87
2022/08/04 02:43:55;;;;;;;;;;;;;;;26.54;56.14;101321.75;4976337;28;19918;-86
2022/08/04 02:46:21;;;;;;;;;;;;;;;26.54;56.25;101325.34;4976935;28;20307;-85
2022/08/04 02:48:47;;;;;;;;;;;;;;;26.51;56.15;101327.16;4959190;28;20371;-85
2022/08/04 02:51:13;;;;;;;;;;;;;;;26.50;56.27;101322.66;4959294;28;19918;-86
2022/08/04 02:53:39;;;;;;;;;;;;;;;26.50;56.42;101325.34;4948568;28;19929;-86
2022/08/04 02:56:05;;;;;;;;;;;;;;;26.48;56.45;101322.69;4959567;28;19925;-85
2022/08/04 02:58:32;;;;;;;;;;;;;;;26.48;56.16;101317.34;4991252;28;20072;-85
2022/08/04 03:00:58;;;;;;;;;;;;;;;26.50;56.26;101320.91;4993672;28;19918;-85
2022/08/04 03:03:25;;;;;;;;;;;;;;;26.51;56.37;101319.09;4975722;28;20288;-85
2022/08/04 03:06:12;;;;;;;;;;;;;;;26.46;56.37;101319.13;4992706;28;19918;-85
2022/08/04 03:08:40;;;;;;;;;;;;;;;26.47;56.42;101312.84;4987896;28;20289;-85
2022/08/04 03:11:20;;;;;;;;;;;;;;;26.44;56.58;101315.56;4986825;28;19925;-85
2022/08/04 03:13:57;;;;;;;;;;;;;;;26.45;56.54;101314.66;4963981;28;21219;-86
2022/08/04 03:16:41;;;;;;;;;;;;;;;26.45;56.15;101324.47;4972070;28;19929;-85
2022/08/04 03:19:09;;;;;;;;;;;;;;;26.46;56.52;101316.44;4989792;28;19925;-86
2022/08/04 03:21:50;;;;;;;;;;;;;;;26.41;56.29;101313.75;4991782;28;19922;-86
2022/08/04 03:24:34;;;;;;;;;;;;;;;26.40;56.51;101324.50;4992396;28;20404;-87
2022/08/04 03:27:06;;;;;;;;;;;;;;;26.42;56.13;101320.03;4991519;28;20379;-86
2022/08/04 03:29:37;;;;;;;;;;;;;;;26.42;56.39;101317.34;4985091;28;20383;-85
2022/08/04 03:32:18;;;;;;;;;;;;;;;26.39;56.42;101322.69;4990876;28;19957;-85
2022/08/04 03:35:06;;;;;;;;;;;;;;;26.37;56.14;101322.72;4967593;28;20391;-86
2022/08/04 03:37:37;;;;;;;;;;;;;;;26.38;56.31;101328.97;4972600;28;19929;-86
2022/08/04 03:40:22;;;;;;;;;;;;;;;26.37;56.29;101324.50;4992136;28;19965;-85
2022/08/04 03:42:47;;;;;;;;;;;;;;;26.38;56.43;101321.81;4988583;28;19914;-87
2022/08/04 03:45:32;;;;;;;;;;;;;;;26.37;56.50;101327.16;4986883;28;20359;-87
2022/08/04 03:48:18;;;;;;;;;;;;;;;26.36;56.23;101323.59;4991160;28;19914;-87
2022/08/04 03:54:08;;;;;;;;;;;;;;;26.37;56.41;101324.50;4988851;28;19977;-87
2022/08/04 03:56:53;;;;;;;;;;;;;;;26.36;56.50;101320.03;4973771;28;19922;-87
2022/08/04 03:59:21;;;;;;;;;;;;;;;26.32;56.35;101319.16;4988782;28;20423;-87
2022/08/04 04:01:50;;;;;;;;;;;;;;;26.31;56.55;101324.50;4986979;28;20004;-87
2022/08/04 04:04:15;;;;;;;;;;;;;;;26.32;56.37;101323.63;4990323;28;19918;-86
2022/08/04 04:06:41;;;;;;;;;;;;;;;26.33;56.22;101325.38;4992776;28;19914;-86
2022/08/04 04:09:25;;;;;;;;;;;;;;;26.34;56.51;101319.16;4991286;28;19918;-87
2022/08/04 04:11:51;;;;;;;;;;;;;;;26.33;56.33;101318.28;4990873;28;19924;-88
2022/08/04 04:14:16;;;;;;;;;;;;;;;26.32;56.45;101321.81;4977772;28;19968;-87
2022/08/04 04:16:48;;;;;;;;;;;;;;;26.30;56.46;101331.66;4984604;28;19926;-86
2022/08/04 04:19:32;;;;;;;;;;;;;;;26.30;56.37;101328.97;4989389;28;20402;-86
2022/08/04 04:22:01;;;;;;;;;;;;;;;26.29;56.30;101327.19;4973192;28;19917;-85
2022/08/04 04:24:32;;;;;;;;;;;;;;;26.25;56.69;101320.06;4991701;28;19976;-88
2022/08/04 04:27:06;;;;;;;;;;;;;;;26.24;56.86;101325.41;4991516;28;19975;-88
2022/08/04 04:29:44;;;;;;;;;;;;;;;26.25;56.70;101328.09;4963766;28;19922;-87
2022/08/04 04:32:17;;;;;;;;;;;;;;;26.27;56.58;101322.72;4989899;28;19953;-87
2022/08/04 04:34:47;;;;;;;;;;;;;;;26.26;56.64;101323.63;4974499;28;19968;-87
2022/08/04 04:37:15;;;;;;;;;;;;;;;26.28;56.52;101329.88;4956358;28;19921;-86
2022/08/04 04:39:59;;;;;;;;;;;;;;;26.26;56.30;101326.31;4983602;28;19918;-86
2022/08/04 04:42:36;;;;;;;;;;;;;;;26.25;56.72;101327.22;4973261;28;19922;-87
2022/08/04 04:45:04;;;;;;;;;;;;;;;26.25;56.48;101321.88;4969899;28;19925;-88
2022/08/04 04:50:35;;;;;;;;;;;;;;;26.22;56.70;101322.72;4996140;28;20196;-86
2022/08/04 04:53:45;;;;;;;;;;;;;;;26.24;56.43;101326.31;4997656;28;19925;-87
2022/08/04 04:56:14;;;;;;;;;;;;;;;26.22;56.70;101325.41;4974029;28;20431;-84
2022/08/04 04:58:39;;;;;;;;;;;;;;;26.20;56.85;101327.19;4974504;28;19918;-93
2022/08/04 05:01:09;;;;;;;;;;;;;;;26.17;56.80;101330.78;4958109;28;19925;-88
2022/08/04 05:03:57;;;;;;;;;;;;;;;26.22;56.99;101329.88;4990824;28;19956;-89
2022/08/04 05:06:29;;;;;;;;;;;;;;;26.20;57.08;101329.88;4970011;28;19968;-88
2022/08/04 05:09:13;;;;;;;;;;;;;;;26.19;56.78;101336.13;4990219;28;20576;-88
2022/08/04 05:12:01;;;;;;;;;;;;;;;26.18;56.85;101335.25;4973981;28;19922;-91
2022/08/04 05:23:48;;;;;;;;;;;;;;;26.11;57.08;101338.81;4912926;29;19923;-89
2022/08/04 05:26:41;;;;;;;;;;;;;;;26.06;57.46;101340.63;4925232;29;20341;-89
2022/08/04 05:46:03;;;;;;;;;;;;;;;26.04;57.37;101342.41;5261350;23;19925;-88
2022/08/04 05:48:33;;;;;;;;;;;;;;;25.96;57.78;101342.41;4979402;28;19926;-88
2022/08/04 05:50:59;;;;;;;;;;;;;;;25.94;58.06;101340.63;4976364;28;20036;-87
2022/08/04 05:53:24;;;;;;;;;;;;;;;26.02;57.79;101338.84;4996441;28;19988;-86
2022/08/04 05:55:49;;;;;;;;;;;;;;;26.03;57.52;101339.72;4993900;28;20012;-86
2022/08/04 05:58:15;;;;;;;;;;;;;;;26.06;57.56;101337.94;4999961;28;19929;-86
2022/08/04 06:00:41;;;;;;;;;;;;;;;26.00;57.55;101328.13;4991269;28;20680;-86
2022/08/04 06:03:06;;;;;;;;;;;;;;;26.02;57.41;101328.13;5013883;28;19918;-89
2022/08/04 06:05:32;;;;;;;;;;;;;;;26.05;57.54;101332.59;4993171;28;19972;-88
2022/08/04 06:07:57;;;;;;;;;;;;;;;26.07;57.54;101330.78;4980030;28;19924;-86
2022/08/04 06:10:23;;;;;;;;;;;;;;;26.03;57.69;101337.03;4974334;28;19928;-88
2022/08/04 06:12:51;;;;;;;;;;;;;;;26.03;57.60;101329.00;4988469;28;19926;-87
2022/08/04 06:15:21;;;;;;;;;;;;;;;26.05;57.34;101329.91;4988391;28;19926;-89
2022/08/04 06:17:57;;;;;;;;;;;;;;;26.06;57.48;101329.91;4980642;28;19918;-88
2022/08/04 06:20:25;;;;;;;;;;;;;;;26.05;57.75;101338.81;4980132;28;20314;-87
2022/08/04 06:22:54;;;;;;;;;;;;;;;26.10;57.52;101333.44;5008960;28;19959;-86
2022/08/04 06:25:22;;;;;;;;;;;;;;;26.06;57.36;101337.94;4979557;28;20387;-87
2022/08/04 06:28:00;;;;;;;;;;;;;;;26.06;57.52;101329.03;4982249;28;20008;-86
2022/08/04 06:30:26;;;;;;;;;;;;;;;26.06;57.40;101337.94;4996727;28;20315;-86
2022/08/04 06:33:02;;;;;;;;;;;;;;;25.99;57.85;101334.38;5009977;28;19922;-85
2022/08/04 06:35:29;;;;;;;;;;;;;;;25.97;57.75;101338.84;4997083;28;19917;-88
2022/08/04 06:37:55;;;;;;;;;;;;;;;26.01;57.54;101334.34;4996785;28;20395;-89
2022/08/04 06:40:21;;;;;;;;;;;;;;;26.00;57.48;101336.16;5014481;28;19927;-89
2022/08/04 06:42:47;;;;;;;;;;;;;;;25.97;57.96;101335.25;4966951;28;19925;-89
2022/08/04 06:45:12;;;;;;;;;;;;;;;25.98;58.01;101343.28;4981706;28;19922;-90
2022/08/04 06:47:38;;;;;;;;;;;;;;;25.94;57.97;101346.84;4965369;28;19976;-89
2022/08/04 06:50:04;;;;;;;;;;;;;;;25.90;57.98;101344.19;4961379;28;19918;-89
2022/08/04 06:52:29;;;;;;;;;;;;;;;25.95;58.12;101340.63;4961274;28;19924;-89
2022/08/04 06:54:57;;;;;;;;;;;;;;;25.88;58.05;101346.81;4977009;28;19925;-91
2022/08/04 06:57:28;;;;;;;;;;;;;;;25.91;58.24;101338.84;4978049;28;19968;-92
2022/08/04 07:00:00;;;;;;;;;;;;;;;25.93;58.22;101347.75;4958420;28;19919;-90
2022/08/04 07:02:26;;;;;;;;;;;;;;;25.90;57.91;101349.53;4970517;28;19918;-91
2022/08/04 07:04:52;;;;;;;;;;;;;;;25.90;57.95;101344.19;4979474;28;19922;-89
2022/08/04 07:07:17;;;;;;;;;;;;;;;25.87;58.09;101346.84;4963055;28;19924;-90
2022/08/04 07:09:42;;;;;;;;;;;;;;;25.89;58.02;101353.13;4964998;28;19927;-87
2022/08/04 07:12:08;;;;;;;;;;;;;;;25.94;58.20;101346.84;4971132;28;19926;-85
2022/08/04 07:14:37;;;;;;;;;;;;;;;25.95;57.96;101342.38;4952604;28;20717;-87
2022/08/04 07:17:06;;;;;;;;;;;;;;;25.95;58.28;101347.75;4967507;28;19925;-88
2022/08/04 07:19:34;;;;;;;;;;;;;;;25.96;58.08;101342.41;4977699;28;19922;-91
2022/08/04 07:22:00;;;;;;;;;;;;;;;25.96;58.25;101341.50;4981771;28;19948;-90
2022/08/04 07:24:29;;;;;;;;;;;;;;;25.95;57.85;101337.03;4976322;28;19957;-91
2022/08/04 07:26:54;;;;;;;;;;;;;;;25.93;58.14;101336.13;4976118;28;19918;-91
2022/08/04 07:29:20;;;;;;;;;;;;;;;25.96;58.09;101339.72;4973085;28;19972;-90
2022/08/04 07:31:47;;;;;;;;;;;;;;;25.96;58.09;101339.72;4968119;28;19925;-91
2022/08/04 07:34:15;;;;;;;;;;;;;;;25.93;57.90;101337.06;4975326;28;19918;-91
2022/08/04 07:36:43;;;;;;;;;;;;;;;25.93;57.90;101336.13;4976409;28;19922;-91
2022/08/04 07:39:09;;;;;;;;;;;;;;;25.95;57.75;101339.72;4993376;28;19921;-91
2022/08/04 07:41:35;;;;;;;;;;;;;;;25.94;57.97;101337.94;4975734;28;19922;-91
2022/08/04 07:44:02;;;;;;;;;;;;;;;25.95;57.78;101337.03;4974926;28;19928;-90
2022/08/04 07:46:29;;;;;;;;;;;;;;;25.96;57.74;101336.16;4994219;28;19928;-90
2022/08/04 07:48:54;;;;;;;;;;;;;;;25.97;57.74;101330.81;5012406;28;19929;-91
2022/08/04 07:51:22;;;;;;;;;;;;;;;25.99;57.92;101334.38;4981555;28;19983;-91
2022/08/04 07:53:47;;;;;;;;;;;;;;;26.00;57.70;101335.25;4983635;28;19913;-89
2022/08/04 07:56:15;;;;;;;;;;;;;;;26.04;57.85;101336.16;4998026;28;19961;-90
2022/08/04 07:58:40;;;;;;;;;;;;;;;26.06;57.55;101331.72;4969402;28;20399;-90
2022/08/04 08:01:07;;;;;;;;;;;;;;;25.98;57.75;101335.25;4973963;28;19924;-90
2022/08/04 08:03:33;;;;;;;;;;;;;;;26.04;57.44;101331.69;4995427;28;19965;-93
2022/08/04 08:06:00;;;;;;;;;;;;;;;26.06;57.43;101329.91;4996142;28;19928;-92
2022/08/04 08:08:25;;;;;;;;;;;;;;;26.08;57.39;101333.47;4992416;28;19991;-92
2022/08/04 08:10:55;;;;;;;;;;;;;;;26.06;57.25;101334.38;5014508;28;19921;-92
2022/08/04 08:13:20;;;;;;;;;;;;;;;26.08;57.28;101332.59;4990445;28;19929;-92
2022/08/04 08:15:52;;;;;;;;;;;;;;;26.11;57.25;101329.91;4976900;28;19926;-93
2022/08/04 08:18:33;;;;;;;;;;;;;;;26.07;57.35;101334.34;4981076;28;19917;-93
2022/08/04 08:20:58;;;;;;;;;;;;;;;26.10;57.20;101326.34;5002136;28;19918;-92
2022/08/04 08:23:24;;;;;;;;;;;;;;;26.06;57.02;101332.59;5012813;28;20306;-92
2022/08/04 08:25:54;;;;;;;;;;;;;;;25.90;57.02;101310.28;4978365;28;20382;-92
2022/08/04 08:28:22;;;;;;;;;;;;;;;26.07;57.22;101323.66;5000157;28;20371;-92
2022/08/04 08:30:48;;;;;;;;;;;;;;;26.08;56.99;101328.13;4998350;28;19918;-94
2022/08/04 08:33:14;;;;;;;;;;;;;;;26.11;57.08;101324.53;4987569;28;19961;-92
2022/08/04 08:35:49;;;;;;;;;;;;;;;26.12;56.95;101326.31;4990386;28;19921;-93
2022/08/04 08:38:16;;;;;;;;;;;;;;;26.14;56.88;101330.81;4980144;28;19925;-92
2022/08/04 08:41:01;;;;;;;;;;;;;;;26.12;57.00;101327.22;4995231;28;19917;-92
2022/08/04 08:43:36;;;;;;;;;;;;;;;26.14;57.15;101324.53;5002114;28;19925;-89
2022/08/04 08:46:27;;;;;;;;;;;;;;;26.15;56.92;101327.22;5012416;28;19921;-92
2022/08/04 08:49:12;;;;;;;;;;;;;;;26.19;56.88;101315.59;5009337;28;20450;-91
2022/08/04 08:51:49;;;;;;;;;;;;;;;26.18;56.78;101321.88;4982359;28;20008;-91
2022/08/04 08:54:31;;;;;;;;;;;;;;;26.12;57.11;101318.28;5013563;28;19914;-91
2022/08/04 08:57:06;;;;;;;;;;;;;;;26.08;57.00;101317.41;4995638;28;19922;-93
2022/08/04 08:59:38;;;;;;;;;;;;;;;26.11;57.32;101309.38;4994725;28;20403;-91
2022/08/04 09:02:22;;;;;;;;;;;;;;;26.18;56.75;101303.13;5013901;28;19940;-91
2022/08/04 09:05:06;;;;;;;;;;;;;;;26.20;56.77;101300.44;5012108;28;19949;-90
2022/08/04 09:07:47;;;;;;;;;;;;;;;26.14;56.83;101300.44;5007015;28;19980;-91
2022/08/04 09:10:18;;;;;;;;;;;;;;;26.13;56.67;101294.19;4993272;28;20429;-91
2022/08/04 09:13:07;;;;;;;;;;;;;;;26.20;56.23;101300.44;4986853;28;19928;-93
2022/08/04 09:15:52;;;;;;;;;;;;;;;26.17;56.70;101293.31;5012742;28;19921;-91
2022/08/04 09:18:30;;;;;;;;;;;;;;;26.19;56.88;101295.97;5005011;28;19922;-95
2022/08/04 09:21:14;;;;;;;;;;;;;;;26.22;56.73;101290.59;5016822;28;19975;-91
2022/08/04 09:26:43;;;;;;;;;;;;;;;26.26;56.78;101294.19;5007139;28;19921;-92
2022/08/04 09:29:31;;;;;;;;;;;;;;;26.26;56.97;101297.75;4999626;28;19921;-94
2022/08/04 09:32:18;;;;;;;;;;;;;;;26.28;57.05;101303.97;4991231;28;19933;-93
2022/08/04 09:35:02;;;;;;;;;;;;;;;26.29;57.06;101297.75;5007810;28;19993;-93
2022/08/04 09:40:39;;;;;;;;;;;;;;;26.31;57.08;101295.97;5018077;28;19989;-91
2022/08/04 09:43:28;;;;;;;;;;;;;;;26.32;57.12;101294.16;4984250;28;19913;-94
2022/08/04 09:46:28;;;;;;;;;;;;;;;26.28;57.09;101290.59;4974083;28;20375;-93
2022/08/04 09:49:10;;;;;;;;;;;;;;;26.30;56.91;101293.28;4907834;29;19919;-92
2022/08/04 09:51:42;;;;;;;;;;;;;;;26.35;56.77;101295.06;4997088;28;19955;-91
2022/08/04 09:54:13;;;;;;;;;;;;;;;26.32;57.17;101304.88;5002139;28;19957;-91
2022/08/04 09:57:03;;;;;;;;;;;;;;;26.30;57.06;101293.28;4980358;28;20437;-91
2022/08/04 09:59:42;;;;;;;;;;;;;;;26.28;56.91;101293.28;4959474;28;19956;-91
2022/08/04 10:02:13;;;;;;;;;;;;;;;26.31;57.07;101292.38;4991233;28;19921;-91
2022/08/04 10:04:41;;;;;;;;;;;;;;;26.32;57.06;101295.06;4996731;28;20448;-88
2022/08/04 10:07:27;;;;;;;;;;;;;;;26.32;57.06;101302.19;4998453;28;19928;-89
2022/08/04 10:10:12;;;;;;;;;;;;;;;26.32;57.09;101304.88;4989425;28;19917;-89
2022/08/04 10:12:51;;;;;;;;;;;;;;;26.29;57.35;101295.06;5010901;28;19918;-91
2022/08/04 10:15:38;;;;;;;;;;;;;;;26.26;57.53;101305.78;4976479;28;19913;-91
2022/08/04 10:18:23;;;;;;;;;;;;;;;26.29;57.55;101291.47;4981288;28;20375;-90
2022/08/04 10:21:18;;;;;;;;;;;;;;;26.31;57.63;101303.06;4989827;28;19922;-89
2022/08/04 10:23:48;;;;;;;;;;;;;;;26.26;57.99;101297.75;4984373;28;20015;-89
2022/08/04 10:26:21;;;;;;;;;;;;;;;26.28;58.39;101297.75;5014804;28;20322;-89
2022/08/04 10:28:52;;;;;;;;;;;;;;;26.36;57.51;101291.47;5014350;28;20016;-89
2022/08/04 10:31:25;;;;;;;;;;;;;;;26.39;57.74;101290.56;4999485;28;20008;-90
2022/08/04 10:33:54;;;;;;;;;;;;;;;26.40;57.93;101293.25;4997636;28;19917;-90
2022/08/04 10:36:21;;;;;;;;;;;;;;;26.38;58.14;101283.44;4984493;28;19944;-90
2022/08/04 10:39:08;;;;;;;;;;;;;;;26.38;58.14;101283.44;4997310;28;19917;-92
2022/08/04 10:41:39;;;;;;;;;;;;;;;26.37;58.25;101271.84;4989489;28;20459;-88
2022/08/04 10:44:10;;;;;;;;;;;;;;;26.34;58.69;101266.47;5013322;28;20474;-88
2022/08/04 10:46:36;;;;;;;;;;;;;;;26.41;57.92;101270.91;4976601;28;19922;-88
2022/08/04 10:49:02;;;;;;;;;;;;;;;26.44;58.19;101277.16;4976749;28;19973;-87
2022/08/04 10:51:45;;;;;;;;;;;;;;;26.40;58.28;101271.81;4979610;28;19918;-88
2022/08/04 10:54:12;;;;;;;;;;;;;;;26.39;58.32;101275.41;4981178;28;20409;-87
2022/08/04 10:56:45;;;;;;;;;;;;;;;26.39;58.37;101272.72;4961460;28;19925;-88
2022/08/04 10:59:14;;;;;;;;;;;;;;;26.39;58.57;101269.13;4975148;28;19922;-87
2022/08/04 11:01:41;;;;;;;;;;;;;;;26.40;58.45;101263.78;4980876;28;20311;-88
2022/08/04 11:04:41;;;;;;;;;;;;;;;26.41;58.32;101265.56;5002424;28;19925;-85
2022/08/04 11:07:06;;;;;;;;;;;;;;;26.45;58.27;101262.88;4976275;28;19925;-90
2022/08/04 11:09:32;;;;;;;;;;;;;;;26.45;58.18;101262.88;4963369;28;19918;-87
2022/08/04 11:12:09;;;;;;;;;;;;;;;26.44;58.24;101267.34;4991121;28;19944;-89
2022/08/04 11:14:55;;;;;;;;;;;;;;;26.47;58.15;101266.44;4989679;28;19925;-89
2022/08/04 11:17:25;;;;;;;;;;;;;;;26.47;57.88;101264.66;4991288;28;19925;-90
2022/08/04 11:20:09;;;;;;;;;;;;;;;26.43;58.33;101267.34;4975735;28;19941;-91
2022/08/04 11:22:38;;;;;;;;;;;;;;;26.42;58.39;101250.41;4977735;28;19913;-89
2022/08/04 11:25:08;;;;;;;;;;;;;;;26.45;58.11;101250.38;4965676;28;19918;-91
2022/08/04 11:27:45;;;;;;;;;;;;;;;26.50;58.06;101255.69;4991889;28;19949;-91
2022/08/04 11:30:12;;;;;;;;;;;;;;;26.52;58.04;101249.47;4984478;28;20004;-91
2022/08/04 11:32:51;;;;;;;;;;;;;;;26.51;58.03;101252.16;4960051;28;19914;-90
2022/08/04 11:35:36;;;;;;;;;;;;;;;26.47;57.93;101251.25;4976439;28;19961;-90
2022/08/04 11:38:08;;;;;;;;;;;;;;;26.46;58.41;101257.53;4993237;28;19918;-88
2022/08/04 11:40:36;;;;;;;;;;;;;;;26.46;58.35;101257.53;4956640;28;20359;-91
2022/08/04 11:43:03;;;;;;;;;;;;;;;26.49;58.33;101246.78;4974930;28;20311;-91
2022/08/04 11:45:37;;;;;;;;;;;;;;;26.53;58.20;101253.03;4975494;28;20372;-91
2022/08/04 11:48:05;;;;;;;;;;;;;;;26.44;58.51;101235.22;4993230;28;19918;-91
2022/08/04 11:50:42;;;;;;;;;;;;;;;26.50;58.35;101243.22;4968223;28;19961;-91
2022/08/04 11:53:08;;;;;;;;;;;;;;;26.50;58.95;101251.25;4975772;28;19917;-93
2022/08/04 11:55:34;;;;;;;;;;;;;;;26.49;58.70;101252.16;4957358;28;19987;-92
2022/08/04 11:58:01;;;;;;;;;;;;;;;26.53;58.30;101245.00;4959576;28;19925;-90
2022/08/04 12:00:27;;;;;;;;;;;;;;;26.53;58.41;101245.88;4955275;28;19922;-90
2022/08/04 12:02:59;;;;;;;;;;;;;;;26.56;58.60;101253.00;4949949;28;20080;-91
2022/08/04 12:05:26;;;;;;;;;;;;;;;26.55;58.37;101249.44;5000620;28;19918;-90
2022/08/04 12:08:04;;;;;;;;;;;;;;;26.54;59.01;101254.78;4960892;28;19925;-93
2022/08/04 12:10:49;;;;;;;;;;;;;;;26.51;59.26;101253.03;4975386;28;20442;-90
2022/08/04 12:13:24;;;;;;;;;;;;;;;26.48;59.70;101258.41;4974611;28;19925;-90
2022/08/04 12:16:08;;;;;;;;;;;;;;;26.53;59.54;101261.06;4971862;28;19918;-89
2022/08/04 12:18:38;;;;;;;;;;;;;;;26.53;59.44;101248.56;4992084;28;19937;-84
2022/08/04 12:21:08;;;;;;;;;;;;;;;26.55;59.12;101254.81;4970005;28;20375;-87
2022/08/04 12:23:43;;;;;;;;;;;;;;;26.59;58.87;101245.88;4969473;28;19976;-87
2022/08/04 12:26:10;;;;;;;;;;;;;;;26.58;59.22;101240.53;4970870;28;19918;-87
2022/08/04 12:28:36;;;;;;;;;;;;;;;26.62;58.92;101252.13;4986092;28;20030;-86
2022/08/04 12:31:04;;;;;;;;;;;;;;;26.62;58.81;101239.63;4965543;28;20004;-86
2022/08/04 12:33:37;;;;;;;;;;;;;;;26.59;59.15;101243.22;4962839;28;19922;-88
2022/08/04 12:36:14;;;;;;;;;;;;;;;26.57;59.09;101238.75;4953377;28;19918;-85
2022/08/04 12:38:44;;;;;;;;;;;;;;;26.62;58.93;101241.41;4974800;28;19930;-88
2022/08/04 12:41:12;;;;;;;;;;;;;;;26.68;58.65;101239.59;4961514;28;19922;-87
2022/08/04 12:43:38;;;;;;;;;;;;;;;26.68;59.15;101236.91;4953408;28;19918;-86
2022/08/04 12:46:30;;;;;;;;;;;;;;;26.64;58.75;101239.63;4982458;28;20005;-88
2022/08/04 12:48:58;;;;;;;;;;;;;;;26.60;59.21;101233.38;4990544;28;20376;-88
2022/08/04 12:51:23;;;;;;;;;;;;;;;26.63;59.28;101235.16;4997119;28;20034;-85
2022/08/04 12:53:50;;;;;;;;;;;;;;;26.62;59.16;101230.69;4971104;28;20461;-86
2022/08/04 12:56:15;;;;;;;;;;;;;;;26.65;59.36;101225.31;4993626;28;19918;-87
2022/08/04 12:58:42;;;;;;;;;;;;;;;26.70;59.37;101237.78;4967740;28;20013;-86
2022/08/04 13:01:09;;;;;;;;;;;;;;;26.72;59.09;101238.69;4973657;28;19926;-87
2022/08/04 13:03:42;;;;;;;;;;;;;;;26.69;59.03;101245.84;4977280;28;19917;-86
2022/08/04 13:06:07;;;;;;;;;;;;;;;26.72;59.12;101241.34;4973030;28;19925;-86
2022/08/04 13:08:37;;;;;;;;;;;;;;;26.70;59.06;101240.47;4968882;28;19922;-86
2022/08/04 13:11:03;;;;;;;;;;;;;;;26.69;59.29;101246.75;4978366;28;20534;-87
2022/08/04 13:13:30;;;;;;;;;;;;;;;26.72;59.01;101243.16;4960159;28;19918;-87
2022/08/04 13:15:56;;;;;;;;;;;;;;;26.77;58.45;101244.88;4983220;28;19929;-87
2022/08/04 13:18:21;;;;;;;;;;;;;;;26.72;58.54;101245.84;4989729;28;19922;-88
2022/08/04 13:20:47;;;;;;;;;;;;;;;26.67;59.26;101242.28;4972416;28;19956;-88
2022/08/04 13:23:14;;;;;;;;;;;;;;;26.69;58.92;101244.06;4992765;28;19918;-88
2022/08/04 13:25:40;;;;;;;;;;;;;;;26.71;58.64;101239.59;4977910;28;19929;-87
2022/08/04 13:28:08;;;;;;;;;;;;;;;26.73;58.52;101242.25;4965593;28;20017;-87
2022/08/04 13:30:33;;;;;;;;;;;;;;;26.70;58.71;101243.16;4972949;28;19936;-87
2022/08/04 13:32:59;;;;;;;;;;;;;;;26.74;58.38;101250.28;4988389;28;19925;-88
2022/08/04 13:35:25;;;;;;;;;;;;;;;26.76;58.49;101243.13;4975581;28;20450;-87
2022/08/04 13:37:50;;;;;;;;;;;;;;;26.75;58.43;101251.16;4995689;28;19921;-88
2022/08/04 13:40:16;;;;;;;;;;;;;;;26.73;58.25;101252.97;4961224;28;19918;-86